createdAt,value
2022-12-27T00:00:14.467Z,11.20
2022-12-27T00:03:03.186Z,16.40
2022-12-27T00:05:31.839Z,13.10
2022-12-27T00:08:00.533Z,13.50
2022-12-27T00:10:29.316Z,14.50
2022-12-27T00:12:58.003Z,11.90
2022-12-27T00:15:27.621Z,17.50
2022-12-27T00:17:56.298Z,14.10
2022-12-27T00:20:24.893Z,16.60
2022-12-27T00:22:53.468Z,11.70
2022-12-27T00:25:22.252Z,10.00
2022-12-27T00:27:50.746Z,10.90
2022-12-27T00:30:19.451Z,15.70
2022-12-27T00:32:48.017Z,18.10
2022-12-27T00:35:16.598Z,22.10
2022-12-27T00:37:45.181Z,21.40
2022-12-27T00:40:13.868Z,18.80
2022-12-27T00:42:42.555Z,11.00
2022-12-27T00:45:11.665Z,16.30
2022-12-27T00:47:40.644Z,13.70
2022-12-27T00:50:09.685Z,11.90
2022-12-27T00:52:38.217Z,13.70
2022-12-27T00:55:07.524Z,9.80
2022-12-27T00:57:36.210Z,14.20
2022-12-27T01:00:10.372Z,12.40
2022-12-27T01:02:40.433Z,12.10
2022-12-27T01:05:09.526Z,12.00
2022-12-27T01:07:38.024Z,12.80
2022-12-27T01:10:07.545Z,11.90
2022-12-27T01:12:37.142Z,11.80
2022-12-27T01:15:07.650Z,13.70
2022-12-27T01:17:36.566Z,12.00
2022-12-27T01:20:06.072Z,13.70
2022-12-27T01:22:34.654Z,10.10
2022-12-27T01:25:03.855Z,11.30
2022-12-27T01:27:32.433Z,15.40
2022-12-27T01:30:01.221Z,17.20
2022-12-27T01:32:32.427Z,7.90
2022-12-27T01:35:01.467Z,9.30
2022-12-27T01:37:30.149Z,10.60
2022-12-27T01:39:59.054Z,12.70
2022-12-27T01:42:47.390Z,15.90
2022-12-27T01:45:29.444Z,13.80
2022-12-27T01:48:21.969Z,13.50
2022-12-27T01:50:57.995Z,9.20
2022-12-27T01:53:44.537Z,11.70
2022-12-27T01:56:26.298Z,8.80
2022-12-27T01:59:09.627Z,12.40
2022-12-27T02:01:47.459Z,10.20
2022-12-27T02:04:21.239Z,12.80
2022-12-27T02:06:51.249Z,12.00
2022-12-27T02:09:34.579Z,12.20
2022-12-27T02:12:06.955Z,12.50
2022-12-27T02:14:49.412Z,10.10
2022-12-27T02:17:24.966Z,9.90
2022-12-27T02:20:03.952Z,7.20
2022-12-27T02:23:44.819Z,9.50
2022-12-27T02:26:53.445Z,11.50
2022-12-27T02:29:30.626Z,10.10
2022-12-27T02:32:10.065Z,6.30
2022-12-27T02:34:48.586Z,9.90
2022-12-27T02:37:19.624Z,12.30
2022-12-27T02:39:49.784Z,11.30
2022-12-27T02:42:39.322Z,12.00
2022-12-27T02:45:40.067Z,10.90
2022-12-27T02:48:34.357Z,12.20
2022-12-27T02:52:00.895Z,6.90
2022-12-27T02:55:04.901Z,8.60
2022-12-27T02:57:54.073Z,6.90
2022-12-27T03:00:44.775Z,8.30
2022-12-27T03:03:28.994Z,6.20
2022-12-27T03:06:42.394Z,13.40
2022-12-27T03:10:00.815Z,6.70
2022-12-27T03:13:15.072Z,8.90
2022-12-27T03:16:04.998Z,10.10
2022-12-27T03:18:50.844Z,12.20
2022-12-27T03:22:02.366Z,10.60
2022-12-27T03:24:58.770Z,7.90
2022-12-27T03:27:35.152Z,13.90
2022-12-27T03:30:27.393Z,7.70
2022-12-27T03:33:13.591Z,7.10
2022-12-27T03:36:36.134Z,9.70
2022-12-27T03:39:17.308Z,11.60
2022-12-27T03:42:22.450Z,12.20
2022-12-27T03:44:51.345Z,11.70
2022-12-27T03:47:51.884Z,21.80
2022-12-27T03:50:55.065Z,7.90
2022-12-27T03:53:40.037Z,6.60
2022-12-27T03:56:09.751Z,12.00
2022-12-27T03:58:38.335Z,12.30
2022-12-27T04:01:07.040Z,7.30
2022-12-27T04:03:35.640Z,9.70
2022-12-27T04:06:04.497Z,11.60
2022-12-27T04:08:51.923Z,10.10
2022-12-27T04:11:39.145Z,7.20
2022-12-27T04:14:26.271Z,12.70
2022-12-27T04:17:13.483Z,13.50
2022-12-27T04:20:00.717Z,9.80
2022-12-27T04:22:47.925Z,10.30
2022-12-27T04:25:35.557Z,7.10
2022-12-27T04:28:23.116Z,7.40
2022-12-27T04:31:10.539Z,10.60
2022-12-27T04:33:58.141Z,9.00
2022-12-27T04:36:26.726Z,7.00
2022-12-27T04:38:55.311Z,9.50
2022-12-27T04:41:42.638Z,9.40
2022-12-27T04:44:30.061Z,8.20
2022-12-27T04:47:18.000Z,8.20
2022-12-27T04:50:05.131Z,15.60
2022-12-27T04:52:53.366Z,11.00
2022-12-27T04:55:24.574Z,6.20
2022-12-27T04:57:53.705Z,7.50
2022-12-27T05:00:44.513Z,7.40
2022-12-27T05:03:20.211Z,8.20
2022-12-27T05:05:51.579Z,8.40
2022-12-27T05:08:39.756Z,10.40
2022-12-27T05:11:27.803Z,7.40
2022-12-27T05:14:02.435Z,6.70
2022-12-27T05:16:39.923Z,5.10
2022-12-27T05:19:12.068Z,8.50
2022-12-27T05:22:04.121Z,7.90
2022-12-27T05:24:52.184Z,13.50
2022-12-27T05:27:20.854Z,12.40
2022-12-27T05:29:49.533Z,7.30
2022-12-27T05:32:18.118Z,10.20
2022-12-27T05:34:47.214Z,8.70
2022-12-27T05:37:15.901Z,5.90
2022-12-27T05:39:44.586Z,5.60
2022-12-27T05:42:13.171Z,7.80
2022-12-27T05:44:41.762Z,8.10
2022-12-27T05:47:10.562Z,6.90
2022-12-27T05:49:39.227Z,6.40
2022-12-27T05:52:07.821Z,9.40
2022-12-27T05:54:36.403Z,5.90
2022-12-27T05:57:04.991Z,5.70
2022-12-27T05:59:34.288Z,6.80
2022-12-27T06:02:03.112Z,7.60
2022-12-27T06:04:31.870Z,16.20
2022-12-27T06:07:00.566Z,8.40
2022-12-27T06:09:30.366Z,4.40
2022-12-27T06:11:58.948Z,6.90
2022-12-27T06:14:27.833Z,9.10
2022-12-27T06:16:56.525Z,9.90
2022-12-27T06:19:25.316Z,8.30
2022-12-27T06:21:53.798Z,9.10
2022-12-27T06:24:22.486Z,7.30
2022-12-27T06:26:51.173Z,6.20
2022-12-27T06:29:19.880Z,8.80
2022-12-27T06:31:48.831Z,6.20
2022-12-27T06:34:18.665Z,8.70
2022-12-27T06:36:51.676Z,10.80
2022-12-27T06:39:20.548Z,6.60
2022-12-27T06:41:50.778Z,5.50
2022-12-27T06:44:19.358Z,8.40
2022-12-27T06:46:47.954Z,5.90
2022-12-27T06:49:16.827Z,7.90
2022-12-27T06:51:45.420Z,9.00
2022-12-27T06:54:14.104Z,8.80
2022-12-27T06:56:43.400Z,7.20
2022-12-27T06:59:11.989Z,8.90
2022-12-27T07:01:42.348Z,7.30
2022-12-27T07:04:11.303Z,10.50
2022-12-27T07:06:39.998Z,5.70
2022-12-27T07:09:09.091Z,7.10
2022-12-27T07:11:38.092Z,6.90
2022-12-27T07:14:10.155Z,10.70
2022-12-27T07:16:38.849Z,8.90
2022-12-27T07:19:10.394Z,6.60
2022-12-27T07:21:38.973Z,8.80
2022-12-27T07:24:07.908Z,7.60
2022-12-27T07:26:36.446Z,7.40
2022-12-27T07:29:05.139Z,4.70
2022-12-27T07:31:34.681Z,5.30
2022-12-27T07:34:04.725Z,5.90
2022-12-27T07:36:39.262Z,8.20
2022-12-27T07:39:09.580Z,9.30
2022-12-27T07:41:38.194Z,11.10
2022-12-27T07:44:07.406Z,7.40
2022-12-27T07:46:36.503Z,3.60
2022-12-27T07:49:05.078Z,5.80
2022-12-27T07:51:33.761Z,8.50
2022-12-27T07:54:02.450Z,7.50
2022-12-27T07:56:31.136Z,7.60
2022-12-27T07:59:01.972Z,6.70
2022-12-27T08:01:54.649Z,6.70
2022-12-27T08:04:24.842Z,7.90
2022-12-27T08:06:54.144Z,6.30
2022-12-27T08:09:30.878Z,7.50
2022-12-27T08:11:59.428Z,9.00
2022-12-27T08:14:28.191Z,8.90
2022-12-27T08:17:14.900Z,9.30
2022-12-27T08:19:43.799Z,8.50
2022-12-27T08:22:12.384Z,5.00
2022-12-27T08:24:41.884Z,6.40
2022-12-27T08:27:12.417Z,10.00
2022-12-27T08:29:40.997Z,11.00
2022-12-27T08:32:09.581Z,4.70
2022-12-27T08:34:38.080Z,9.70
2022-12-27T08:37:06.752Z,8.70
2022-12-27T08:39:35.442Z,5.50
2022-12-27T08:42:04.434Z,8.10
2022-12-27T08:44:33.015Z,12.40
2022-12-27T08:47:01.720Z,6.90
2022-12-27T08:49:30.693Z,5.80
2022-12-27T08:51:59.388Z,6.70
2022-12-27T08:54:28.069Z,7.70
2022-12-27T08:56:56.661Z,7.00
2022-12-27T08:59:25.444Z,7.30
2022-12-27T09:01:54.242Z,7.20
2022-12-27T09:04:23.230Z,6.60
2022-12-27T09:06:51.910Z,9.70
2022-12-27T09:09:20.600Z,5.00
2022-12-27T09:11:49.183Z,6.60
2022-12-27T09:14:17.974Z,9.90
2022-12-27T09:16:46.660Z,10.30
2022-12-27T09:19:15.349Z,7.90
2022-12-27T09:21:44.778Z,10.40
2022-12-27T09:24:14.390Z,9.40
2022-12-27T09:26:43.150Z,10.60
2022-12-27T09:29:11.951Z,8.10
2022-12-27T09:31:40.727Z,8.00
2022-12-27T09:34:11.631Z,5.80
2022-12-27T09:36:40.964Z,9.40
2022-12-27T09:39:12.601Z,9.30
2022-12-27T09:42:46.539Z,7.40
2022-12-27T09:45:45.340Z,7.70
2022-12-27T09:48:18.842Z,5.90
2022-12-27T09:50:55.841Z,7.50
2022-12-27T09:53:43.349Z,9.30
2022-12-27T09:56:16.865Z,8.40
2022-12-27T09:58:54.577Z,7.60
2022-12-27T10:01:41.619Z,8.10
2022-12-27T10:04:17.975Z,7.60
2022-12-27T10:06:49.499Z,6.30
2022-12-27T10:09:37.318Z,7.60
2022-12-27T10:12:31.975Z,9.90
2022-12-27T10:15:14.833Z,5.20
2022-12-27T10:18:19.152Z,9.10
2022-12-27T10:21:19.286Z,3.90
2022-12-27T10:24:03.123Z,9.90
2022-12-27T10:26:31.709Z,6.60
2022-12-27T10:29:17.597Z,6.20
2022-12-27T10:31:46.593Z,7.60
2022-12-27T10:34:24.338Z,6.30
2022-12-27T10:36:53.899Z,9.30
2022-12-27T10:39:29.905Z,8.50
2022-12-27T10:42:14.515Z,7.30
2022-12-27T10:44:43.306Z,4.60
2022-12-27T10:47:12.137Z,7.60
2022-12-27T10:49:44.827Z,12.80
2022-12-27T10:52:22.982Z,37.80
2022-12-27T10:54:57.414Z,11.20
2022-12-27T10:57:34.123Z,8.40
2022-12-27T11:00:24.389Z,8.30
2022-12-27T11:03:01.034Z,8.10
2022-12-27T11:05:33.815Z,8.40
2022-12-27T11:08:24.839Z,9.40
2022-12-27T11:11:14.017Z,8.50
2022-12-27T11:13:43.929Z,8.60
2022-12-27T11:16:23.554Z,10.40
2022-12-27T11:18:55.929Z,9.10
2022-12-27T11:21:27.956Z,8.70
2022-12-27T11:24:02.426Z,7.10
2022-12-27T11:26:42.060Z,8.70
2022-12-27T11:29:19.941Z,6.30
2022-12-27T11:31:49.330Z,6.50
2022-12-27T11:34:38.345Z,9.30
2022-12-27T11:37:14.700Z,9.00
2022-12-27T11:39:45.846Z,13.60
2022-12-27T11:42:38.685Z,12.50
2022-12-27T11:45:35.760Z,7.90
2022-12-27T11:48:29.630Z,7.90
2022-12-27T11:51:17.260Z,6.90
2022-12-27T11:54:14.736Z,9.70
2022-12-27T11:56:55.800Z,12.50
2022-12-27T11:59:47.732Z,13.70
2022-12-27T12:03:03.018Z,10.10
2022-12-27T12:06:10.509Z,9.10
2022-12-27T12:09:17.492Z,9.80
2022-12-27T12:13:03.598Z,9.80
2022-12-27T12:16:21.729Z,8.80
2022-12-27T12:19:12.142Z,11.90
2022-12-27T12:21:53.417Z,10.50
2022-12-27T12:24:59.588Z,9.40
2022-12-27T12:28:47.249Z,11.80
2022-12-27T12:31:32.724Z,7.90
2022-12-27T12:34:41.532Z,13.10
2022-12-27T12:38:03.979Z,10.90
2022-12-27T12:41:06.671Z,8.00
2022-12-27T12:43:47.337Z,7.30
2022-12-27T12:46:47.658Z,7.50
2022-12-27T12:49:31.608Z,10.30
2022-12-27T12:52:20.468Z,10.30
2022-12-27T12:55:38.756Z,13.40
2022-12-27T12:58:47.646Z,12.00
2022-12-27T13:01:50.482Z,12.70
2022-12-27T13:04:44.129Z,15.00
2022-12-27T13:07:39.287Z,10.10
2022-12-27T13:10:17.317Z,10.20
2022-12-27T13:13:03.719Z,16.70
2022-12-27T13:15:47.153Z,11.30
2022-12-27T13:18:43.387Z,14.00
2022-12-27T13:22:02.660Z,17.50
2022-12-27T13:24:50.703Z,13.40
2022-12-27T13:27:46.011Z,29.30
2022-12-27T13:30:34.503Z,17.80
2022-12-27T13:33:43.286Z,14.30
2022-12-27T13:36:36.284Z,16.10
2022-12-27T13:39:24.186Z,14.90
2022-12-27T13:42:02.414Z,32.30
2022-12-27T13:45:09.556Z,30.90
2022-12-27T13:48:11.456Z,14.50
2022-12-27T13:51:13.005Z,12.30
2022-12-27T13:54:18.554Z,12.00
2022-12-27T13:56:55.985Z,29.50
2022-12-27T13:59:52.400Z,24.80
2022-12-27T14:02:30.677Z,17.80
2022-12-27T14:05:02.417Z,13.00
2022-12-27T14:08:16.403Z,13.10
2022-12-27T14:10:55.268Z,12.60
2022-12-27T14:13:37.022Z,11.60
2022-12-27T14:16:31.633Z,12.10
2022-12-27T14:19:34.095Z,13.40
2022-12-27T14:22:40.578Z,14.00
2022-12-27T14:25:34.037Z,13.00
2022-12-27T14:28:30.578Z,12.80
2022-12-27T14:31:55.177Z,20.00
2022-12-27T14:35:01.752Z,18.50
2022-12-27T14:38:07.710Z,17.40
2022-12-27T14:41:22.784Z,15.10
2022-12-27T14:44:21.987Z,16.30
2022-12-27T14:47:00.914Z,10.80
2022-12-27T14:50:22.644Z,16.80
2022-12-27T14:53:36.285Z,12.60
2022-12-27T14:56:37.093Z,14.80
2022-12-27T14:59:17.494Z,12.70
2022-12-27T15:01:51.920Z,13.20
2022-12-27T15:04:32.781Z,23.10
2022-12-27T15:07:28.808Z,19.20
2022-12-27T15:10:12.673Z,18.50
2022-12-27T15:13:01.247Z,19.70
2022-12-27T15:16:01.035Z,22.70
2022-12-27T15:18:39.538Z,19.00
2022-12-27T15:22:01.789Z,14.00
2022-12-27T15:25:29.765Z,13.20
2022-12-27T15:28:08.172Z,12.90
2022-12-27T15:31:16.376Z,65.60
2022-12-27T15:34:32.177Z,48.30
2022-12-27T15:37:02.132Z,35.40
2022-12-27T15:39:33.656Z,21.20
2022-12-27T15:42:30.352Z,18.50
2022-12-27T15:45:26.527Z,16.00
2022-12-27T15:48:00.738Z,15.20
2022-12-27T15:50:45.603Z,13.20
2022-12-27T15:53:37.849Z,14.60
2022-12-27T15:56:43.560Z,13.30
2022-12-27T15:59:55.651Z,13.50
2022-12-27T16:02:28.150Z,14.00
2022-12-27T16:05:09.261Z,16.00
2022-12-27T16:07:42.283Z,21.70
2022-12-27T16:10:41.250Z,18.90
2022-12-27T16:13:09.824Z,23.20
2022-12-27T16:15:52.471Z,18.50
2022-12-27T16:18:24.813Z,11.20
2022-12-27T16:21:01.708Z,19.10
2022-12-27T16:23:31.833Z,18.50
2022-12-27T16:26:21.392Z,17.50
2022-12-27T16:29:12.915Z,20.00
2022-12-27T16:31:48.141Z,13.00
2022-12-27T16:34:30.703Z,16.30
2022-12-27T16:37:00.944Z,14.80
2022-12-27T16:39:58.531Z,16.90
2022-12-27T16:43:05.345Z,16.20
2022-12-27T16:45:39.653Z,15.80
2022-12-27T16:48:24.628Z,15.30
2022-12-27T16:51:14.205Z,14.20
2022-12-27T16:53:55.009Z,14.20
2022-12-27T16:56:28.120Z,15.10
2022-12-27T16:58:57.575Z,20.60
2022-12-27T17:01:26.258Z,19.80
2022-12-27T17:03:59.348Z,18.50
2022-12-27T17:06:32.639Z,21.60
2022-12-27T17:09:08.625Z,18.10
2022-12-27T17:12:06.615Z,10.50
2022-12-27T17:14:38.396Z,16.00
2022-12-27T17:17:21.292Z,13.60
2022-12-27T17:20:16.978Z,12.50
2022-12-27T17:22:45.678Z,11.60
2022-12-27T17:25:17.858Z,11.60
2022-12-27T17:28:05.867Z,9.50
2022-12-27T17:30:52.262Z,11.30
2022-12-27T17:34:03.039Z,9.50
2022-12-27T17:36:48.724Z,11.40
2022-12-27T17:39:51.818Z,15.00
2022-12-27T17:43:33.310Z,17.70
2022-12-27T17:46:10.642Z,17.40
2022-12-27T17:48:39.282Z,21.30
2022-12-27T17:51:15.001Z,21.70
2022-12-27T17:54:11.166Z,16.90
2022-12-27T17:57:18.768Z,17.00
2022-12-27T17:59:51.114Z,16.40
2022-12-27T18:02:30.734Z,20.30
2022-12-27T18:05:05.187Z,32.80
2022-12-27T18:07:35.631Z,81.40
2022-12-27T18:10:27.252Z,85.40
2022-12-27T18:13:04.751Z,74.20
2022-12-27T18:15:43.371Z,63.40
2022-12-27T18:18:34.077Z,42.30
2022-12-27T18:21:06.042Z,23.30
2022-12-27T18:23:42.589Z,18.90
2022-12-27T18:26:15.910Z,25.80
2022-12-27T18:28:44.912Z,19.00
2022-12-27T18:31:38.313Z,23.50
2022-12-27T18:34:42.901Z,24.20
2022-12-27T18:37:22.958Z,26.50
2022-12-27T18:40:04.926Z,39.00
2022-12-27T18:42:45.022Z,34.40
2022-12-27T18:45:21.672Z,25.90
2022-12-27T18:47:54.119Z,27.60
2022-12-27T18:50:26.294Z,25.90
2022-12-27T18:53:23.990Z,20.20
2022-12-27T18:56:22.161Z,20.60
2022-12-27T18:59:13.178Z,13.20
2022-12-27T19:01:47.008Z,8.60
2022-12-27T19:04:17.330Z,10.10
2022-12-27T19:07:00.963Z,10.20
2022-12-27T19:09:37.693Z,13.80
2022-12-27T19:12:31.286Z,15.10
2022-12-27T19:15:01.694Z,12.60
2022-12-27T19:17:33.123Z,19.20
2022-12-27T19:20:05.074Z,24.50
2022-12-27T19:22:40.573Z,28.00
2022-12-27T19:25:27.288Z,27.00
2022-12-27T19:28:11.337Z,37.20
2022-12-27T19:30:48.421Z,39.30
2022-12-27T19:33:33.017Z,56.30
2022-12-27T19:36:07.283Z,55.80
2022-12-27T19:38:40.373Z,64.30
2022-12-27T19:41:14.662Z,65.40
2022-12-27T19:43:46.251Z,64.70
2022-12-27T19:46:15.758Z,64.60
2022-12-27T19:48:46.223Z,46.30
2022-12-27T19:51:20.917Z,50.70
2022-12-27T19:53:57.551Z,53.10
2022-12-27T19:56:27.230Z,66.40
2022-12-27T19:58:56.808Z,65.50
2022-12-27T20:01:25.861Z,60.00
2022-12-27T20:03:54.486Z,59.30
2022-12-27T20:06:28.303Z,32.50
2022-12-27T20:08:57.188Z,19.10
2022-12-27T20:11:27.976Z,18.30
2022-12-27T20:13:56.507Z,18.80
2022-12-27T20:16:25.429Z,24.60
2022-12-27T20:18:54.091Z,26.10
2022-12-27T20:21:23.517Z,25.40
2022-12-27T20:23:52.075Z,75.00
2022-12-27T20:26:25.461Z,86.90
2022-12-27T20:28:54.264Z,81.20
2022-12-27T20:31:23.082Z,81.30
2022-12-27T20:33:55.005Z,75.60
2022-12-27T20:36:24.756Z,58.30
2022-12-27T20:38:53.513Z,65.50
2022-12-27T20:41:23.176Z,58.40
2022-12-27T20:43:58.670Z,47.80
2022-12-27T20:46:27.486Z,33.50
2022-12-27T20:48:57.588Z,30.80
2022-12-27T20:51:28.310Z,30.60
2022-12-27T20:53:59.725Z,23.00
2022-12-27T20:56:28.441Z,20.80
2022-12-27T20:58:57.658Z,15.50
2022-12-27T21:01:27.179Z,15.40
2022-12-27T21:03:56.999Z,20.80
2022-12-27T21:06:29.347Z,18.70
2022-12-27T21:08:58.853Z,36.40
2022-12-27T21:11:32.390Z,28.60
2022-12-27T21:14:03.648Z,21.00
2022-12-27T21:16:34.978Z,13.80
2022-12-27T21:19:05.319Z,17.00
2022-12-27T21:21:38.047Z,18.00
2022-12-27T21:24:11.142Z,19.10
2022-12-27T21:26:41.329Z,19.20
2022-12-27T21:29:10.709Z,26.20
2022-12-27T21:31:39.272Z,16.40
2022-12-27T21:34:08.255Z,32.80
2022-12-27T21:36:41.558Z,18.50
2022-12-27T21:39:10.555Z,35.90
2022-12-27T21:41:40.571Z,31.90
2022-12-27T21:44:10.166Z,21.20
2022-12-27T21:46:42.267Z,17.50
2022-12-27T21:49:14.804Z,12.80
2022-12-27T21:51:44.625Z,12.40
2022-12-27T21:54:14.104Z,10.60
2022-12-27T21:56:42.816Z,12.20
2022-12-27T21:59:12.321Z,8.00
2022-12-27T22:01:50.389Z,27.40
2022-12-27T22:04:22.128Z,28.80
2022-12-27T22:06:50.977Z,13.80
2022-12-27T22:09:19.853Z,14.90
2022-12-27T22:11:49.149Z,11.60
2022-12-27T22:14:21.762Z,14.80
2022-12-27T22:16:52.178Z,14.30
2022-12-27T22:19:21.071Z,12.30
2022-12-27T22:21:49.750Z,15.10
2022-12-27T22:24:20.073Z,11.50
2022-12-27T22:26:50.519Z,16.20
2022-12-27T22:29:19.698Z,13.90
2022-12-27T22:31:48.186Z,14.90
2022-12-27T22:34:16.775Z,12.70
2022-12-27T22:36:45.471Z,11.70
2022-12-27T22:39:14.245Z,11.80
2022-12-27T22:41:43.134Z,12.60
2022-12-27T22:44:15.455Z,18.60
2022-12-27T22:47:15.876Z,18.80
2022-12-27T22:49:32.988Z,20.90
2022-12-27T22:52:01.752Z,20.30
2022-12-27T22:55:04.366Z,22.30
2022-12-27T22:57:19.096Z,18.40
2022-12-27T22:59:47.891Z,17.70
2022-12-27T23:02:16.737Z,17.40
2022-12-27T23:04:45.608Z,15.40
2022-12-27T23:07:14.142Z,14.00
2022-12-27T23:09:43.593Z,13.50
2022-12-27T23:12:14.073Z,12.60
2022-12-27T23:14:42.656Z,11.70
2022-12-27T23:17:11.358Z,10.30
2022-12-27T23:19:40.241Z,13.50
2022-12-27T23:22:08.823Z,11.70
2022-12-27T23:24:37.407Z,11.80
2022-12-27T23:27:05.992Z,14.30
2022-12-27T23:29:34.675Z,11.50
2022-12-27T23:32:03.413Z,14.00
2022-12-27T23:34:32.364Z,14.60
2022-12-27T23:37:01.669Z,13.90
2022-12-27T23:39:30.245Z,11.80
2022-12-27T23:41:59.140Z,16.30
2022-12-27T23:44:34.198Z,15.50
2022-12-27T23:47:07.225Z,9.60
2022-12-27T23:49:35.944Z,11.70
2022-12-27T23:52:05.365Z,11.50
2022-12-27T23:54:33.937Z,10.70
2022-12-27T23:57:22.353Z,10.80
2022-12-27T23:59:55.084Z,11.70
